Time;durP1;ratioP1;P1;durP2;ratioP2;P2;SDS_P1;SDS_P2;PMS_P1;PMS_P2;Temp;Humidity;BMP_temperature;BMP_pressure;BME280_temperature;BME280_humidity;BME280_pressure;Samples;Min_cycle;Max_cycle;Signal;HPM_P1;HPM_P2
2022/03/31 00:01:41;;;;;;;57.77;35.17;;;;;;;8.57;85.21;97725.25;4963804;28;20689;-76
2022/03/31 00:04:06;;;;;;;58.60;33.20;;;;;;;8.58;85.32;97722.50;4964842;28;20499;-76
2022/03/31 00:06:32;;;;;;;61.47;37.30;;;;;;;8.59;85.36;97718.94;4968246;28;20214;-75
2022/03/31 00:08:57;;;;;;;59.87;37.10;;;;;;;8.61;85.33;97724.03;4971569;28;20671;-75
2022/03/31 00:11:23;;;;;;;68.47;37.07;;;;;;;8.61;85.19;97718.78;4966966;28;20224;-75
2022/03/31 00:13:49;;;;;;;57.13;34.87;;;;;;;8.59;85.46;97724.16;4962908;28;20339;-75
2022/03/31 00:16:14;;;;;;;57.37;35.70;;;;;;;8.57;85.49;97720.84;4980418;28;20216;-75
2022/03/31 00:18:40;;;;;;;56.30;34.07;;;;;;;8.58;85.44;97722.50;4963811;28;20451;-76
2022/03/31 00:21:05;;;;;;;62.57;35.67;;;;;;;8.61;85.46;97716.16;4966008;28;20211;-75
2022/03/31 00:23:31;;;;;;;66.03;38.47;;;;;;;8.63;85.29;97714.25;4963657;28;20219;-75
2022/03/31 00:25:57;;;;;;;63.53;37.95;;;;;;;8.63;85.35;97709.84;4963717;28;20207;-75
2022/03/31 00:28:23;;;;;;;62.10;35.23;;;;;;;8.64;85.30;97700.19;4962515;28;20239;-75
2022/03/31 00:30:49;;;;;;;70.13;34.47;;;;;;;8.66;85.32;97692.22;4968967;28;20246;-75
2022/03/31 00:33:15;;;;;;;74.50;45.53;;;;;;;8.72;85.68;97697.78;4966972;28;20591;-75
2022/03/31 00:35:40;;;;;;;67.53;36.77;;;;;;;8.73;85.74;97698.59;4967747;28;20893;-75
2022/03/31 00:38:06;;;;;;;58.20;37.40;;;;;;;8.74;85.63;97695.00;4967973;28;20210;-75
2022/03/31 00:40:32;;;;;;;58.37;34.50;;;;;;;8.74;85.63;97695.00;4969199;28;20559;-75
2022/03/31 00:42:59;;;;;;;64.20;36.40;;;;;;;8.76;85.45;97690.47;4968292;28;20243;-75
2022/03/31 00:45:34;;;;;;;63.28;33.20;;;;;;;8.78;85.30;97681.53;4968315;28;20481;-75
2022/03/31 00:48:00;;;;;;;59.90;34.15;;;;;;;8.77;85.08;97676.41;4965127;28;20227;-75
2022/03/31 00:50:26;;;;;;;61.92;36.42;;;;;;;8.75;85.09;97675.72;4975214;28;20211;-75
2022/03/31 00:52:52;;;;;;;58.22;34.15;;;;;;;8.72;85.17;97679.47;4991732;28;20204;-76
2022/03/31 00:55:19;;;;;;;64.45;33.25;;;;;;;8.75;85.12;97679.19;4991897;28;20469;-75
2022/03/31 00:57:45;;;;;;;62.63;34.42;;;;;;;8.76;85.08;97683.44;4978802;28;20234;-75
2022/03/31 01:00:14;;;;;;;56.80;33.67;;;;;;;8.77;84.92;97673.78;4968671;28;20698;-75
2022/03/31 01:02:43;;;;;;;54.42;34.35;;;;;;;8.78;85.09;97676.28;4970165;28;20235;-75
2022/03/31 01:05:09;;;;;;;59.92;34.40;;;;;;;8.80;84.69;97678.75;4967379;28;20249;-75
2022/03/31 01:07:37;;;;;;;49.50;31.33;;;;;;;8.81;84.70;97667.34;4967547;28;20712;-76
2022/03/31 01:10:04;;;;;;;62.65;36.53;;;;;;;8.80;84.65;97657.81;4967852;28;20671;-76
2022/03/31 01:12:30;;;;;;;55.65;32.50;;;;;;;8.76;84.53;97654.66;4970771;28;20298;-76
2022/03/31 01:15:17;;;;;;;57.17;33.47;;;;;;;8.72;84.54;97655.91;4969122;28;20327;-76
2022/03/31 01:17:46;;;;;;;61.03;32.67;;;;;;;8.70;84.73;97657.81;4967026;28;20262;-77
2022/03/31 01:20:14;;;;;;;62.08;35.30;;;;;;;8.69;84.71;97653.53;4965971;28;20219;-76
2022/03/31 01:22:42;;;;;;;57.80;33.05;;;;;;;8.68;84.78;97653.66;4969176;28;20212;-76
2022/03/31 01:25:09;;;;;;;63.13;33.25;;;;;;;8.68;84.73;97648.44;4967742;28;20330;-76
2022/03/31 01:27:37;;;;;;;65.93;32.40;;;;;;;8.69;84.93;97644.84;4969988;28;20502;-76
2022/03/31 01:30:05;;;;;;;62.15;30.77;;;;;;;8.69;84.73;97642.22;4970402;28;20216;-76
2022/03/31 01:32:31;;;;;;;61.40;35.05;;;;;;;8.67;84.86;97641.53;4968731;28;20373;-76
2022/03/31 01:34:57;;;;;;;71.63;39.00;;;;;;;8.68;84.91;97632.72;4968490;28;20654;-76
2022/03/31 01:37:23;;;;;;;56.97;33.00;;;;;;;8.67;84.80;97634.53;4973372;28;20251;-76
2022/03/31 01:39:48;;;;;;;51.43;31.87;;;;;;;8.67;84.79;97631.06;4966787;28;20939;-76
2022/03/31 01:42:14;;;;;;;52.67;33.20;;;;;;;8.64;84.84;97624.31;4965827;28;20639;-76
2022/03/31 01:44:39;;;;;;;51.20;31.13;;;;;;;8.58;84.97;97623.06;4966105;28;20263;-76
2022/03/31 01:47:05;;;;;;;57.90;35.53;;;;;;;8.58;84.95;97623.06;4964871;28;20712;-76
2022/03/31 01:49:34;;;;;;;63.00;35.07;;;;;;;8.60;84.82;97620.31;4969447;28;20239;-76
2022/03/31 01:52:06;;;;;;;62.20;34.47;;;;;;;8.64;84.67;97619.06;4968982;28;20306;-76
2022/03/31 01:54:34;;;;;;;61.75;34.63;;;;;;;8.68;84.71;97617.03;4966903;28;20269;-76
2022/03/31 01:57:01;;;;;;;64.50;35.40;;;;;;;8.67;84.53;97615.34;4968314;28;20452;-76
2022/03/31 01:59:41;;;;;;;60.67;36.10;;;;;;;8.62;84.76;97606.13;4967580;28;20195;-76
2022/03/31 02:02:13;;;;;;;56.53;32.53;;;;;;;8.60;84.74;97609.84;4993501;28;20385;-76
2022/03/31 02:04:44;;;;;;;54.55;33.78;;;;;;;8.59;85.03;97602.97;5002006;28;20227;-76
2022/03/31 02:07:10;;;;;;;53.35;34.35;;;;;;;8.58;85.04;97593.44;5001939;28;20242;-77
2022/03/31 02:09:36;;;;;;;62.17;32.93;;;;;;;8.59;85.04;97593.31;5004447;28;20304;-76
2022/03/31 02:12:02;;;;;;;63.45;36.22;;;;;;;8.60;84.95;97587.13;5003289;28;20217;-74
2022/03/31 02:14:28;;;;;;;56.35;34.22;;;;;;;8.61;84.86;97580.94;5002295;28;20567;-77
2022/03/31 02:16:55;;;;;;;56.90;31.50;;;;;;;8.54;84.98;97571.13;5001838;28;20220;-76
2022/03/31 02:19:21;;;;;;;61.22;35.25;;;;;;;8.50;85.19;97577.59;5000502;28;20458;-76
2022/03/31 02:21:46;;;;;;;56.87;35.70;;;;;;;8.48;85.30;97574.28;5002627;28;20206;-77
2022/03/31 02:24:12;;;;;;;61.57;36.00;;;;;;;8.49;85.15;97568.09;5001502;28;20473;-77
2022/03/31 02:26:38;;;;;;;60.03;35.00;;;;;;;8.51;85.13;97564.38;5000751;28;20243;-75
2022/03/31 02:29:04;;;;;;;67.93;37.97;;;;;;;8.54;84.95;97571.13;5002108;28;20489;-75
2022/03/31 02:31:31;;;;;;;69.07;36.92;;;;;;;8.53;84.95;97567.69;5003071;28;20515;-77
2022/03/31 02:33:58;;;;;;;58.15;35.97;;;;;;;8.52;84.96;97563.41;5001116;28;20258;-77
2022/03/31 02:36:23;;;;;;;61.92;34.42;;;;;;;8.54;85.04;97566.72;5001644;28;20206;-77
2022/03/31 02:38:49;;;;;;;65.40;33.20;;;;;;;8.51;84.99;97556.53;5002357;28;20206;-74
2022/03/31 02:41:15;;;;;;;56.63;34.80;;;;;;;8.49;85.21;97555.00;5002936;28;20470;-77
2022/03/31 02:43:41;;;;;;;55.33;34.23;;;;;;;8.48;85.22;97551.56;5001040;28;20473;-77
2022/03/31 02:46:07;;;;;;;62.13;35.40;;;;;;;8.46;85.36;97545.66;5001927;28;21156;-74
2022/03/31 02:48:33;;;;;;;71.38;35.20;;;;;;;8.44;85.41;97552.78;5001297;28;20238;-75
2022/03/31 02:50:59;;;;;;;67.10;36.60;;;;;;;8.47;85.39;97539.44;5001408;28;20230;-76
2022/03/31 02:56:08;;;;;;;63.80;36.35;;;;;;;8.50;85.25;97540.97;5001272;28;20301;-76
2022/03/31 02:58:34;;;;;;;65.10;36.37;;;;;;;8.52;85.16;97533.81;5000979;28;20211;-76
2022/03/31 03:01:00;;;;;;;58.87;34.93;;;;;;;8.53;85.25;97527.59;5002261;28;20273;-74
2022/03/31 03:03:27;;;;;;;61.72;34.15;;;;;;;8.55;85.13;97533.53;5000045;28;21001;-77
2022/03/31 03:05:52;;;;;;;65.47;36.08;;;;;;;8.55;84.95;97531.75;5000656;28;20397;-74
2022/03/31 03:08:17;;;;;;;67.10;36.87;;;;;;;8.56;85.08;97532.56;5000437;28;20234;-74
2022/03/31 03:10:43;;;;;;;64.67;36.00;;;;;;;8.55;85.04;97523.88;5000885;28;20218;-76
2022/03/31 03:13:09;;;;;;;67.37;36.87;;;;;;;8.55;85.15;97523.88;5001810;28;20330;-74
2022/03/31 03:15:35;;;;;;;61.45;33.67;;;;;;;8.56;85.12;97533.41;4999647;28;20234;-75
2022/03/31 03:18:01;;;;;;;56.65;35.08;;;;;;;8.57;85.01;97526.38;5000663;28;20664;-73
2022/03/31 03:20:26;;;;;;;56.90;32.60;;;;;;;8.58;84.95;97518.38;5001033;28;20229;-74
2022/03/31 03:22:53;;;;;;;64.03;35.17;;;;;;;8.56;85.21;97514.25;5000687;28;20341;-73
2022/03/31 03:25:20;;;;;;;70.22;37.35;;;;;;;8.53;85.32;97514.53;5000544;28;20313;-76
2022/03/31 03:27:48;;;;;;;63.78;34.70;;;;;;;8.50;85.33;97507.75;5000138;28;20479;-74
2022/03/31 03:30:15;;;;;;;58.90;33.45;;;;;;;8.49;85.45;97506.13;4999611;28;20601;-74
2022/03/31 03:32:40;;;;;;;66.35;34.05;;;;;;;8.49;85.51;97508.75;5015252;28;20209;-76
2022/03/31 03:35:08;;;;;;;70.17;37.60;;;;;;;8.51;85.49;97504.22;5000023;28;20218;-75
2022/03/31 03:37:34;;;;;;;50.63;31.85;;;;;;;8.50;85.43;97502.53;5000242;28;20207;-75
2022/03/31 03:40:02;;;;;;;60.85;34.45;;;;;;;8.47;85.66;97496.75;4998847;28;20238;-77
2022/03/31 03:42:28;;;;;;;72.55;36.63;;;;;;;8.43;85.85;97501.44;4998415;28;20202;-77
2022/03/31 03:44:54;;;;;;;67.70;36.90;;;;;;;8.39;85.99;97492.19;4999186;28;20269;-74
2022/03/31 03:47:20;;;;;;;66.10;32.75;;;;;;;8.38;86.04;97493.13;4998546;28;20245;-76
2022/03/31 03:49:45;;;;;;;58.80;32.90;;;;;;;8.39;86.21;97494.81;4998852;28;20333;-74
2022/03/31 03:52:10;;;;;;;60.37;34.07;;;;;;;8.43;86.01;97501.44;4999415;28;20301;-77
2022/03/31 03:54:36;;;;;;;48.73;31.93;;;;;;;8.47;85.93;97499.38;4998604;28;20364;-75
2022/03/31 03:57:01;;;;;;;59.40;33.77;;;;;;;8.49;85.82;97493.03;4999343;28;20210;-74
2022/03/31 03:59:27;;;;;;;64.40;31.87;;;;;;;8.49;85.74;97490.44;4997814;28;20211;-76
2022/03/31 04:01:52;;;;;;;70.63;38.70;;;;;;;8.48;85.85;97495.78;4999087;28;20833;-77
2022/03/31 04:04:18;;;;;;;57.47;34.57;;;;;;;8.47;86.02;97492.34;5001124;28;20440;-76
2022/03/31 04:06:43;;;;;;;66.70;39.43;;;;;;;8.47;86.07;97487.13;5005569;28;20244;-75
2022/03/31 04:09:09;;;;;;;60.67;34.43;;;;;;;8.48;86.03;97491.41;5006431;28;20452;-77
2022/03/31 04:11:34;;;;;;;60.47;37.87;;;;;;;8.47;85.99;97487.13;5006677;28;20232;-75
2022/03/31 04:14:00;;;;;;;56.17;34.30;;;;;;;8.46;85.85;97479.41;5007451;28;20231;-75
2022/03/31 04:16:25;;;;;;;58.97;34.80;;;;;;;8.45;85.86;97486.41;5007713;28;20581;-74
2022/03/31 04:18:50;;;;;;;66.83;37.00;;;;;;;8.48;85.86;97488.78;5005670;28;20329;-76
2022/03/31 04:21:16;;;;;;;51.57;35.97;;;;;;;8.51;85.73;97493.75;5006263;28;20693;-74
2022/03/31 04:23:41;;;;;;;55.40;34.17;;;;;;;8.50;85.62;97484.22;5006974;28;20233;-77
2022/03/31 04:26:08;;;;;;;70.20;35.80;;;;;;;8.50;85.66;97480.78;5005981;28;20218;-78
2022/03/31 04:28:34;;;;;;;71.43;38.15;;;;;;;8.50;85.64;97486.00;5006023;28;20250;-77
2022/03/31 04:30:59;;;;;;;60.87;38.10;;;;;;;8.47;85.63;97489.72;5003835;28;20206;-75
2022/03/31 04:33:26;;;;;;;72.63;37.97;;;;;;;8.46;85.72;97487.25;5002231;28;20206;-76
2022/03/31 04:35:52;;;;;;;63.10;35.35;;;;;;;8.45;85.84;97494.25;5008184;28;20207;-74
2022/03/31 04:38:17;;;;;;;64.60;34.30;;;;;;;8.43;85.82;97483.13;5005839;28;20276;-73
2022/03/31 04:40:43;;;;;;;68.83;37.50;;;;;;;8.45;85.71;97485.59;5001692;28;20743;-76
2022/03/31 04:43:08;;;;;;;66.40;36.70;;;;;;;8.45;85.79;97480.34;5001658;28;20823;-76
2022/03/31 04:45:34;;;;;;;73.30;37.47;;;;;;;8.46;85.75;97482.03;5001742;28;20229;-73
2022/03/31 04:47:59;;;;;;;62.57;37.70;;;;;;;8.46;85.68;97492.50;5001606;28;20700;-76
2022/03/31 04:50:24;;;;;;;69.17;38.37;;;;;;;8.47;85.80;97487.13;5001127;28;20465;-74
2022/03/31 04:52:50;;;;;;;60.67;36.97;;;;;;;8.48;85.82;97486.16;5001246;28;20308;-76
2022/03/31 04:55:15;;;;;;;75.00;39.93;;;;;;;8.49;85.62;97484.38;5002662;28;20559;-73
2022/03/31 04:57:42;;;;;;;68.37;41.67;;;;;;;8.50;85.80;97481.59;5000860;28;20201;-74
2022/03/31 05:00:08;;;;;;;70.97;40.55;;;;;;;8.51;85.72;97485.88;4999007;28;20260;-74
2022/03/31 05:02:33;;;;;;;74.90;41.30;;;;;;;8.53;85.62;97480.50;5000691;28;20203;-76
2022/03/31 05:04:59;;;;;;;72.67;40.27;;;;;;;8.54;85.63;97479.56;5001125;28;20227;-76
2022/03/31 05:07:24;;;;;;;68.87;40.10;;;;;;;8.52;85.60;97482.28;5000643;28;20805;-76
2022/03/31 05:09:49;;;;;;;63.30;37.07;;;;;;;8.52;85.83;97476.25;4999934;28;20225;-75
2022/03/31 05:12:15;;;;;;;68.90;39.57;;;;;;;8.54;85.52;97476.94;4999523;28;20250;-76
2022/03/31 05:14:40;;;;;;;64.77;35.73;;;;;;;8.54;85.43;97480.38;4998132;28;20325;-76
2022/03/31 05:17:06;;;;;;;62.53;37.47;;;;;;;8.53;85.55;97470.88;4999173;28;20218;-74
2022/03/31 05:19:32;;;;;;;64.20;39.05;;;;;;;8.53;85.43;97470.03;4999663;28;20199;-75
2022/03/31 05:21:58;;;;;;;75.10;39.87;;;;;;;8.53;85.34;97473.50;4999568;28;20321;-76
2022/03/31 05:24:23;;;;;;;75.70;42.23;;;;;;;8.51;85.37;97470.19;4999049;28;20475;-73
2022/03/31 05:26:52;;;;;;;61.87;37.40;;;;;;;8.52;85.51;97477.06;4999597;28;20275;-76
2022/03/31 05:29:19;;;;;;;69.00;37.47;;;;;;;8.53;85.40;97472.66;4998962;28;20207;-73
2022/03/31 05:31:44;;;;;;;81.93;42.63;;;;;;;8.55;85.26;97475.97;4997787;28;20496;-76
2022/03/31 05:34:10;;;;;;;76.73;39.80;;;;;;;8.56;85.51;97478.47;5000955;28;20584;-74
2022/03/31 05:36:35;;;;;;;63.67;38.30;;;;;;;8.58;85.53;97473.88;5002389;28;20306;-74
2022/03/31 05:39:02;;;;;;;63.20;38.07;;;;;;;8.59;85.27;97477.34;5001850;28;20317;-76
2022/03/31 05:41:28;;;;;;;71.22;41.15;;;;;;;8.57;85.46;97480.09;5001576;28;20696;-76
2022/03/31 05:43:55;;;;;;;69.63;38.30;;;;;;;8.55;85.43;97479.41;5002293;28;20258;-75
2022/03/31 05:46:25;;;;;;;73.72;40.67;;;;;;;8.53;85.63;97481.34;5001609;28;20902;-74
2022/03/31 05:48:50;;;;;;;73.60;39.45;;;;;;;8.53;85.50;97480.50;5000829;28;20671;-74
2022/03/31 05:51:16;;;;;;;73.13;41.17;;;;;;;8.51;85.52;97472.81;5001371;28;20697;-74
2022/03/31 05:53:42;;;;;;;69.72;41.55;;;;;;;8.49;85.67;97479.97;5000987;28;20237;-74
2022/03/31 05:56:07;;;;;;;74.87;40.57;;;;;;;8.50;85.69;97475.53;5001071;28;20219;-73
2022/03/31 05:58:34;;;;;;;70.20;38.97;;;;;;;8.48;85.68;97475.69;4999950;28;20202;-75
2022/03/31 06:00:59;;;;;;;68.15;38.22;;;;;;;8.49;85.98;97473.91;5000547;28;20213;-74
2022/03/31 06:03:25;;;;;;;75.43;38.90;;;;;;;8.49;85.70;97481.75;5001063;28;20218;-76
2022/03/31 06:05:51;;;;;;;77.43;40.63;;;;;;;8.49;85.67;97481.75;5000017;28;20956;-78
2022/03/31 06:08:17;;;;;;;78.27;43.43;;;;;;;8.48;85.73;97470.47;4999737;28;20648;-76
2022/03/31 06:10:43;;;;;;;70.47;37.07;;;;;;;8.51;85.79;97469.38;5000352;28;20819;-76
2022/03/31 06:13:09;;;;;;;75.10;40.88;;;;;;;8.53;85.78;97464.81;4999678;28;20935;-75
2022/03/31 06:15:35;;;;;;;74.10;41.27;;;;;;;8.56;85.80;97465.38;4998984;28;20284;-73
2022/03/31 06:18:01;;;;;;;73.50;39.03;;;;;;;8.59;85.51;97459.88;5000136;28;20800;-76
2022/03/31 06:20:28;;;;;;;64.37;38.60;;;;;;;8.60;85.54;97464.13;4999384;28;20214;-75
2022/03/31 06:22:53;;;;;;;73.90;40.63;;;;;;;8.62;85.47;97462.19;4998510;28;20353;-74
2022/03/31 06:25:20;;;;;;;72.97;39.07;;;;;;;8.66;85.36;97467.16;4998490;28;20771;-76
2022/03/31 06:27:47;;;;;;;70.45;39.13;;;;;;;8.68;85.28;97462.63;4998183;28;20292;-73
2022/03/31 06:30:13;;;;;;;74.85;40.10;;;;;;;8.70;85.33;97466.75;4998469;28;20260;-76
2022/03/31 06:32:39;;;;;;;84.75;49.13;;;;;;;8.75;85.54;97466.31;4996835;28;20474;-77
2022/03/31 06:35:05;;;;;;;81.83;44.77;;;;;;;8.74;85.71;97460.25;4997876;28;20239;-74
2022/03/31 06:37:30;;;;;;;67.53;39.13;;;;;;;8.76;85.57;97462.75;4997620;28;20449;-76
2022/03/31 06:39:56;;;;;;;73.70;41.83;;;;;;;8.76;85.52;97460.94;4997303;28;20931;-76
2022/03/31 06:42:21;;;;;;;85.90;45.50;;;;;;;8.80;85.35;97461.50;4997206;28;20211;-74
2022/03/31 06:44:48;;;;;;;69.50;41.70;;;;;;;8.82;85.44;97463.00;4998028;28;20289;-73
2022/03/31 06:47:13;;;;;;;68.87;38.73;;;;;;;8.84;85.20;97461.09;4997620;28;20210;-73
2022/03/31 06:49:38;;;;;;;69.63;38.20;;;;;;;8.83;85.12;97463.81;4996545;28;20239;-76
2022/03/31 06:52:04;;;;;;;62.77;36.90;;;;;;;8.84;85.10;97457.66;4997388;28;20627;-74
2022/03/31 06:54:31;;;;;;;70.63;37.47;;;;;;;8.88;84.96;97460.78;4995569;28;20665;-74
2022/03/31 06:56:57;;;;;;;60.45;35.50;;;;;;;8.90;84.93;97464.94;4997134;28;20461;-74
2022/03/31 06:59:22;;;;;;;68.97;40.17;;;;;;;8.93;84.68;97456.78;4996612;28;20285;-74
2022/03/31 07:01:48;;;;;;;72.55;40.20;;;;;;;8.98;84.82;97451.97;4996905;28;20996;-74
2022/03/31 07:04:14;;;;;;;73.50;42.90;;;;;;;9.01;84.93;97443.81;4997395;28;20301;-76
2022/03/31 07:06:40;;;;;;;74.03;41.40;;;;;;;9.03;84.87;97456.78;4998405;28;20705;-75
2022/03/31 07:09:06;;;;;;;79.53;40.60;;;;;;;9.06;84.72;97449.47;4998222;28;20226;-74
2022/03/31 07:11:32;;;;;;;69.03;39.53;;;;;;;9.13;84.64;97443.66;4996401;28;20688;-75
2022/03/31 07:14:01;;;;;;;69.93;38.60;;;;;;;9.17;84.50;97450.28;4996131;28;20735;-75
2022/03/31 07:16:30;;;;;;;70.97;39.60;;;;;;;9.19;84.44;97443.13;4997874;28;20199;-74
2022/03/31 07:18:56;;;;;;;71.72;40.72;;;;;;;9.22;84.49;97440.19;4996238;28;20210;-75
2022/03/31 07:21:23;;;;;;;72.03;37.20;;;;;;;9.26;84.20;97438.94;4996766;28;20206;-72
2022/03/31 07:23:51;;;;;;;76.55;39.75;;;;;;;9.28;84.24;97440.44;5000480;28;20230;-73
2022/03/31 07:26:16;;;;;;;75.20;39.92;;;;;;;9.32;83.89;97438.38;5002978;28;20790;-73
2022/03/31 07:28:42;;;;;;;69.03;40.57;;;;;;;9.35;84.01;97447.75;5009553;28;20286;-72
2022/03/31 07:31:07;;;;;;;67.13;37.77;;;;;;;9.34;83.87;97436.44;5006760;28;20968;-74
2022/03/31 07:33:33;;;;;;;73.60;41.07;;;;;;;9.36;83.99;97438.91;5005607;28;20579;-71
2022/03/31 07:35:58;;;;;;;70.30;40.20;;;;;;;9.40;83.88;97435.88;5004538;28;20297;-72
2022/03/31 07:38:24;;;;;;;62.40;37.83;;;;;;;9.44;83.82;97436.41;4999365;28;20684;-72
2022/03/31 07:40:50;;;;;;;65.87;36.70;;;;;;;9.49;83.50;97435.00;5013699;28;20214;-72
2022/03/31 07:43:16;;;;;;;65.27;43.13;;;;;;;9.50;83.49;97438.44;4998347;28;20302;-75
2022/03/31 07:45:41;;;;;;;73.65;38.60;;;;;;;9.47;83.80;97436.94;5015322;28;20957;-73
2022/03/31 07:48:09;;;;;;;72.87;37.27;;;;;;;9.44;83.79;97431.16;5015151;28;20877;-75
2022/03/31 07:50:35;;;;;;;71.13;36.47;;;;;;;9.43;83.81;97434.75;5016012;28;20281;-75
2022/03/31 07:53:01;;;;;;;64.40;34.90;;;;;;;9.45;83.84;97432.81;5003036;28;20211;-73
2022/03/31 07:55:27;;;;;;;85.43;37.70;;;;;;;9.47;83.53;97431.69;5014105;28;20595;-72
2022/03/31 07:57:53;;;;;;;62.03;34.30;;;;;;;9.46;83.65;97424.00;5006145;28;20299;-71
2022/03/31 08:00:20;;;;;;;61.25;34.35;;;;;;;9.44;83.66;97425.91;5010536;28;20206;-73
2022/03/31 08:02:49;;;;;;;80.10;44.67;;;;;;;9.49;83.46;97421.91;5014683;28;21044;-75
2022/03/31 08:05:20;;;;;;;63.28;38.60;;;;;;;9.51;83.39;97433.06;5006203;28;20734;-73
2022/03/31 08:07:46;;;;;;;73.15;40.63;;;;;;;9.52;83.43;97421.59;4997749;28;20218;-76
2022/03/31 08:10:12;;;;;;;69.22;36.15;;;;;;;9.57;83.13;97428.22;5002641;28;20210;-72
2022/03/31 08:12:39;;;;;;;62.50;35.80;;;;;;;9.59;83.06;97421.88;5003332;28;20238;-73
2022/03/31 08:15:05;;;;;;;73.95;39.22;;;;;;;9.62;83.07;97418.94;5002477;28;20254;-74
2022/03/31 08:17:31;;;;;;;67.72;38.33;;;;;;;9.64;83.07;97422.25;5011806;28;20305;-75
2022/03/31 08:19:57;;;;;;;70.97;35.60;;;;;;;9.67;82.92;97418.53;5012837;28;20295;-74
2022/03/31 08:22:23;;;;;;;73.30;36.30;;;;;;;9.65;82.86;97423.09;4998124;28;20460;-73
2022/03/31 08:24:49;;;;;;;67.05;35.97;;;;;;;9.65;82.84;97423.09;5007515;28;20301;-76
2022/03/31 08:27:15;;;;;;;76.00;37.90;;;;;;;9.59;83.23;97424.50;5001499;28;20289;-73
2022/03/31 08:29:40;;;;;;;71.53;39.78;;;;;;;9.54;83.83;97426.72;5000346;28;21648;-73
2022/03/31 08:32:08;;;;;;;78.20;41.00;;;;;;;9.50;83.79;97420.94;5000514;28;20222;-74
2022/03/31 08:34:33;;;;;;;72.85;36.72;;;;;;;9.51;83.85;97422.59;5010661;28;20730;-74
2022/03/31 08:36:59;;;;;;;69.77;36.87;;;;;;;9.52;83.72;97424.22;5004793;28;20246;-75
2022/03/31 08:39:24;;;;;;;62.20;34.67;;;;;;;9.50;83.65;97415.72;5010055;28;20301;-74
2022/03/31 08:41:50;;;;;;;71.73;36.40;;;;;;;9.50;83.96;97422.72;5010284;28;20267;-76
2022/03/31 08:44:19;;;;;;;63.90;34.20;;;;;;;9.46;84.13;97431.84;5003218;28;20226;-75
2022/03/31 08:46:45;;;;;;;74.25;40.08;;;;;;;9.43;84.40;97429.53;5004239;28;20449;-75
2022/03/31 08:49:11;;;;;;;68.90;35.90;;;;;;;9.36;84.37;97424.00;5008861;28;20238;-76
2022/03/31 08:51:37;;;;;;;71.33;37.77;;;;;;;9.34;84.66;97430.38;5009154;28;20217;-74
2022/03/31 08:54:02;;;;;;;58.07;34.13;;;;;;;9.37;84.71;97430.94;5006963;28;20493;-73
2022/03/31 08:56:28;;;;;;;70.67;34.27;;;;;;;9.41;84.49;97432.28;5006685;28;21166;-75
2022/03/31 08:58:53;;;;;;;77.20;35.40;;;;;;;9.44;84.28;97431.16;5022884;28;20493;-76
2022/03/31 09:01:19;;;;;;;71.40;38.58;;;;;;;9.45;84.39;97432.81;5006919;28;20522;-73
2022/03/31 09:03:45;;;;;;;78.83;36.63;;;;;;;9.46;84.72;97432.66;5003336;28;20269;-73
2022/03/31 09:06:39;;;;;;;66.67;35.80;;;;;;;9.47;84.57;97425.63;5004643;28;20210;-74
2022/03/31 09:09:05;;;;;;;69.90;35.30;;;;;;;9.47;84.67;97426.44;4987575;28;20504;-76
2022/03/31 09:11:34;;;;;;;62.27;34.07;;;;;;;9.50;84.80;97422.72;5002653;28;20203;-76
2022/03/31 09:14:02;;;;;;;67.70;33.83;;;;;;;9.49;84.65;97427.13;5002690;28;21292;-73
2022/03/31 09:16:38;;;;;;;64.55;33.22;;;;;;;9.56;84.65;97429.16;5001816;28;20765;-76
2022/03/31 09:19:10;;;;;;;66.03;33.90;;;;;;;9.58;84.49;97425.44;5005100;28;20253;-76
2022/03/31 09:21:57;;;;;;;74.80;35.15;;;;;;;9.56;84.57;97429.16;5005521;28;20290;-75
2022/03/31 09:24:26;;;;;;;76.25;40.33;;;;;;;9.51;84.66;97433.06;4997482;28;20230;-75
2022/03/31 09:26:54;;;;;;;62.15;32.85;;;;;;;9.53;84.62;97435.53;5004643;28;20848;-74
2022/03/31 09:29:24;;;;;;;79.35;49.75;;;;;;;9.55;84.60;97435.41;5004582;28;20210;-76
2022/03/31 09:31:53;;;;;;;72.43;38.88;;;;;;;9.57;84.96;97428.22;4998900;28;20483;-76
2022/03/31 09:34:19;;;;;;;53.33;31.45;;;;;;;9.61;85.06;97433.00;5010021;28;20736;-74
2022/03/31 09:36:51;;;;;;;53.70;30.42;;;;;;;9.65;84.90;97428.31;5006866;28;20268;-75
2022/03/31 09:39:17;;;;;;;57.00;29.13;;;;;;;9.65;84.51;97428.31;5001682;28;20199;-73
2022/03/31 09:41:50;;;;;;;57.30;30.88;;;;;;;9.66;84.72;97433.41;4999976;28;20207;-75
2022/03/31 09:44:17;;;;;;;67.32;35.53;;;;;;;9.67;84.74;97429.00;4996436;28;20223;-72
2022/03/31 09:46:43;;;;;;;71.68;35.78;;;;;;;9.70;84.77;97426.91;5002798;28;20691;-74
2022/03/31 09:49:18;;;;;;;63.83;34.45;;;;;;;9.77;84.48;97427.13;5007043;28;20258;-73
2022/03/31 09:51:49;;;;;;;66.18;34.67;;;;;;;9.88;84.34;97429.59;5004580;28;20887;-77
2022/03/31 09:54:15;;;;;;;62.22;33.63;;;;;;;9.96;84.15;97421.81;5000669;28;20229;-77
2022/03/31 09:56:41;;;;;;;61.00;33.25;;;;;;;10.00;83.95;97424.13;5006709;28;20239;-77
2022/03/31 09:59:10;;;;;;;69.43;33.47;;;;;;;10.01;83.77;97423.97;5004223;28;20739;-76
2022/03/31 10:01:37;;;;;;;59.90;32.55;;;;;;;10.10;83.76;97424.88;5002087;28;20487;-76
2022/03/31 10:04:05;;;;;;;68.30;33.95;;;;;;;10.14;83.60;97416.56;5000074;28;20258;-74
2022/03/31 10:06:33;;;;;;;61.38;33.15;;;;;;;10.16;83.53;97419.88;5004439;28;20210;-75
2022/03/31 10:08:59;;;;;;;50.22;29.00;;;;;;;10.17;83.33;97413.66;4999537;28;20288;-72
2022/03/31 10:11:28;;;;;;;49.95;26.45;;;;;;;10.18;83.57;97414.50;4998998;28;20734;-75
2022/03/31 10:13:53;;;;;;;62.50;29.25;;;;;;;10.22;83.08;97421.09;5003726;28;20231;-74
2022/03/31 10:16:31;;;;;;;51.60;27.37;;;;;;;10.23;83.04;97412.22;5005254;28;20818;-75
2022/03/31 10:18:57;;;;;;;48.50;27.08;;;;;;;10.20;83.15;97417.78;4996478;28;20203;-75
2022/03/31 10:21:27;;;;;;;56.33;29.17;;;;;;;10.22;83.01;97420.25;5005632;28;20209;-75
2022/03/31 10:26:36;;;;;;;67.70;33.78;;;;;;;10.21;82.91;97408.94;4997902;28;20210;-75
2022/03/31 10:29:10;;;;;;;55.70;27.70;;;;;;;10.18;83.10;97404.81;4997449;28;20219;-75
2022/03/31 10:31:39;;;;;;;65.65;32.70;;;;;;;10.14;82.92;97406.06;4999246;28;20211;-73
2022/03/31 10:34:06;;;;;;;66.50;33.95;;;;;;;10.06;83.46;97410.44;5000125;28;20761;-76
2022/03/31 10:36:49;;;;;;;73.82;37.22;;;;;;;10.03;83.54;97402.84;5004847;28;20245;-74
2022/03/31 10:39:20;;;;;;;80.20;36.03;;;;;;;10.03;83.49;97405.47;5002408;28;20210;-76
2022/03/31 10:41:47;;;;;;;61.40;35.85;;;;;;;10.00;83.37;97403.16;5003058;28;20210;-74
2022/03/31 10:44:12;;;;;;;58.63;37.85;;;;;;;9.96;83.54;97398.22;5005082;28;20226;-73
2022/03/31 10:46:42;;;;;;;69.10;35.20;;;;;;;9.92;83.58;97398.66;5004980;28;20286;-74
2022/03/31 10:49:19;;;;;;;53.58;30.73;;;;;;;9.83;83.41;97404.75;5003507;28;20239;-73
2022/03/31 10:51:45;;;;;;;61.95;34.15;;;;;;;9.75;83.87;97395.84;5002328;28;20217;-75
2022/03/31 10:54:33;;;;;;;63.83;32.85;;;;;;;9.70;83.72;97392.00;5002252;28;20726;-76
2022/03/31 10:57:11;;;;;;;59.90;30.92;;;;;;;9.64;83.94;97392.56;5007473;28;20201;-72
2022/03/31 10:59:38;;;;;;;65.07;30.60;;;;;;;9.56;84.09;97389.88;5000970;28;20595;-73
2022/03/31 11:02:09;;;;;;;61.53;36.55;;;;;;;9.49;84.16;97377.34;5005307;28;20468;-74
2022/03/31 11:04:52;;;;;;;56.03;33.15;;;;;;;9.48;84.78;97385.38;5001811;28;20282;-75
2022/03/31 11:07:20;;;;;;;57.70;30.50;;;;;;;9.47;84.85;97374.03;5007362;28;20222;-76
2022/03/31 11:09:47;;;;;;;53.97;30.80;;;;;;;9.50;84.47;97372.94;5002909;28;20237;-74
2022/03/31 11:12:27;;;;;;;68.50;31.75;;;;;;;9.47;84.30;97374.03;5000595;28;20871;-73
2022/03/31 11:15:02;;;;;;;43.85;27.52;;;;;;;9.43;84.34;97367.47;5000833;28;20664;-74
2022/03/31 11:17:29;;;;;;;56.90;30.67;;;;;;;9.40;84.36;97367.75;5001030;28;20206;-76
2022/03/31 11:19:55;;;;;;;61.83;34.20;;;;;;;9.39;84.64;97371.31;4997791;28;20672;-75
2022/03/31 11:22:27;;;;;;;52.60;27.67;;;;;;;9.38;84.73;97372.31;5000879;28;20786;-73
2022/03/31 11:25:08;;;;;;;49.42;27.42;;;;;;;9.35;84.49;97366.53;4998877;28;20226;-75
2022/03/31 11:27:36;;;;;;;46.08;27.75;;;;;;;9.34;84.59;97370.09;4996149;28;20612;-72
2022/03/31 11:30:05;;;;;;;42.70;24.10;;;;;;;9.34;84.37;97363.06;4998163;28;20322;-74